Redwood City, CA

12:53 PM PST on December 09, 2016 (GMT -0800)
Redwood Shores | | Change Station

Elev 5 ft 37.53 °N, 122.25 °W | Updated 15 seconds ago

Mostly Cloudy
Mostly Cloudy
64.9 °F
Feels Like 64.9 °F
N
2.7
Wind Variable Wind from SSW
Gusts 4.9 mph

Today
High -- | Low -- °F
--% Chance of Precip.
Yesterday
High -- | Low -- °F
Precip. -- in
Pressure 30.21 in
Visibility 9.0 miles
Clouds Scattered Clouds 2000 ft
Mostly Cloudy 3000 ft
Dew Point 54 °F
Humidity 69%
Rainfall 0.02 in
Snow Depth Not available.
7:12 AM 4:50 PM
Waxing Gibbous, 77% visible
METAR KSQL 092047Z 07005KT 9SM SCT020 BKN030 16/14 A3021
Pressure 30.21 in
Visibility 9.0 miles
Clouds Scattered Clouds 2000 ft
Mostly Cloudy 3000 ft
Dew Point 54 °F
Humidity 69%
Rainfall 0.02 in
Snow Depth Not available.
7:12 AM 4:50 PM
Waxing Gibbous, 77% visible
METAR KSQL 092047Z 07005KT 9SM SCT020 BKN030 16/14 A3021

10-Day Weather Forecast

Almanac

Astronomy

Dec. 09, 2016 Rise Set
Actual Time
Civil Twilight
Nautical Twilight
Astronomical Twilight
Moon
Length of Visible Light
Length of Day
Tomorrow will be .
, % of the Moon is Illuminated

Today's Extremes

State Highs State Lows

Community

WunderPhotos

Upload Photos

1,956,517 photos uploaded!

WunderBlog® & News

Nearby

Air Quality

  Air Quality AQ Index Pollutant
Not available.

Snow Depth

Station Depth Elevation

Earthquake Activity

City Distance Mag. Time & Date
Minimum magnitude displayed is 2.5.

Coastal Water Temperatures

Place Temperature

Stations

Nearby Weather Stations

Station Location Temp. Windchill Dew Point Humidity Wind Precip. Elev Updated Type
                   

Watches & Warnings

There are currently no watches in effect.